createdAt,value
2023-02-11T00:01:40.334Z,101542.72
2023-02-11T00:04:15.735Z,101545.53
2023-02-11T00:06:48.728Z,101532.00
2023-02-11T00:09:22.996Z,101536.12
2023-02-11T00:11:56.817Z,101528.94
2023-02-11T00:14:30.059Z,101534.46
2023-02-11T00:17:03.888Z,101537.52
2023-02-11T00:19:38.125Z,101540.28
2023-02-11T00:22:12.296Z,101535.06
2023-02-11T00:24:46.709Z,101529.87
2023-02-11T00:27:20.503Z,101527.88
2023-02-11T00:29:54.822Z,101527.88
2023-02-11T00:32:29.703Z,101533.54
2023-02-11T00:35:03.824Z,101525.94
2023-02-11T00:37:39.737Z,101535.23
2023-02-11T00:40:16.339Z,101539.69
2023-02-11T00:42:52.236Z,101538.87
2023-02-11T00:45:26.297Z,101546.97
2023-02-11T00:48:01.414Z,101535.45
2023-02-11T00:50:35.389Z,101541.36
2023-02-11T00:53:08.232Z,101537.47
2023-02-11T00:55:41.917Z,101529.62
2023-02-11T00:58:15.814Z,101530.61
2023-02-11T01:00:50.162Z,101533.81
2023-02-11T01:03:24.063Z,101536.48
2023-02-11T01:05:58.399Z,101521.89
2023-02-11T01:08:32.283Z,101522.30
2023-02-11T01:11:13.770Z,101518.16
2023-02-11T01:13:49.027Z,101513.06
2023-02-11T01:16:22.949Z,101509.58
2023-02-11T01:18:59.183Z,101513.39
2023-02-11T01:21:33.373Z,101504.49
2023-02-11T01:24:07.902Z,101492.73
2023-02-11T01:26:42.494Z,101499.41
2023-02-11T01:29:15.434Z,101499.08
2023-02-11T01:31:49.606Z,101485.09
2023-02-11T01:34:23.345Z,101479.07
2023-02-11T01:37:01.788Z,101458.04
2023-02-11T01:39:36.530Z,101461.48
2023-02-11T01:42:19.647Z,101463.27
2023-02-11T01:44:55.849Z,101474.41
2023-02-11T01:47:30.197Z,101489.70
2023-02-11T01:50:05.036Z,101479.67
2023-02-11T01:52:41.169Z,101485.52
2023-02-11T01:55:34.032Z,101487.23
2023-02-11T01:58:08.519Z,101478.22
2023-02-11T02:00:43.387Z,101472.09
2023-02-11T02:03:22.738Z,101456.94
2023-02-11T02:06:07.831Z,101437.33
2023-02-11T02:08:55.707Z,101430.98
2023-02-11T02:11:31.296Z,101424.03
2023-02-11T02:14:05.709Z,101441.75
2023-02-11T02:16:40.412Z,101438.85
2023-02-11T02:19:31.046Z,101440.78
2023-02-11T02:22:50.047Z,101454.41
2023-02-11T02:25:54.294Z,101457.30
2023-02-11T02:28:53.566Z,101449.53
2023-02-11T02:32:02.276Z,101448.05
2023-02-11T02:35:00.106Z,101446.45
2023-02-11T02:37:44.802Z,101463.44
2023-02-11T02:40:26.917Z,101458.83
2023-02-11T02:43:01.463Z,101471.88
2023-02-11T02:45:35.731Z,101478.52
2023-02-11T02:48:32.915Z,101478.82
2023-02-11T02:51:37.186Z,101473.38
2023-02-11T02:54:33.499Z,101472.02
2023-02-11T02:57:30.632Z,101467.00
2023-02-11T03:00:44.366Z,101464.24
2023-02-11T03:03:44.493Z,101459.16
2023-02-11T03:06:44.259Z,101465.38
2023-02-11T03:09:40.651Z,101469.66
2023-02-11T03:12:16.342Z,101455.45
2023-02-11T03:14:52.842Z,101447.50
2023-02-11T03:17:27.522Z,101444.02
2023-02-11T03:20:03.000Z,101446.55
2023-02-11T03:22:42.645Z,101439.88
2023-02-11T03:25:16.631Z,101439.04
2023-02-11T03:27:57.733Z,101432.76
2023-02-11T03:30:36.175Z,101447.51
2023-02-11T03:33:17.175Z,101445.55
2023-02-11T03:36:00.713Z,101451.32
2023-02-11T03:38:38.873Z,101440.17
2023-02-11T03:41:13.472Z,101436.83
2023-02-11T03:43:51.798Z,101433.19
2023-02-11T03:46:30.396Z,101433.36
2023-02-11T03:49:08.443Z,101422.96
2023-02-11T03:51:43.010Z,101416.28
2023-02-11T03:54:20.379Z,101415.22
2023-02-11T03:56:58.561Z,101426.27
2023-02-11T03:59:32.454Z,101429.39
2023-02-11T04:02:05.387Z,101434.55
2023-02-11T04:04:39.894Z,101444.72
2023-02-11T04:07:15.696Z,101449.36
2023-02-11T04:09:50.637Z,101450.19
2023-02-11T04:12:25.661Z,101448.16
2023-02-11T04:15:00.154Z,101446.00
2023-02-11T04:17:34.395Z,101453.09
2023-02-11T04:20:09.715Z,101463.74
2023-02-11T04:22:43.571Z,101460.67
2023-02-11T04:25:16.526Z,101462.00
2023-02-11T04:27:51.950Z,101456.35
2023-02-11T04:30:25.856Z,101464.47
2023-02-11T04:33:00.876Z,101453.28
2023-02-11T04:35:34.805Z,101442.66
2023-02-11T04:38:09.129Z,101444.82
2023-02-11T04:40:43.321Z,101439.22
2023-02-11T04:43:17.478Z,101440.58
2023-02-11T04:45:51.822Z,101433.77
2023-02-11T04:48:27.119Z,101433.37
2023-02-11T04:51:01.610Z,101433.16
2023-02-11T04:53:35.623Z,101435.14
2023-02-11T04:56:09.714Z,101441.77
2023-02-11T04:58:43.702Z,101438.06
2023-02-11T05:01:18.675Z,101436.59
2023-02-11T05:03:53.039Z,101442.06
2023-02-11T05:06:26.883Z,101440.06
2023-02-11T05:08:59.767Z,101435.48
2023-02-11T05:11:34.339Z,101428.93
2023-02-11T05:14:08.912Z,101429.31
2023-02-11T05:16:43.460Z,101423.77
2023-02-11T05:19:17.806Z,101413.56
2023-02-11T05:22:02.570Z,101412.05
2023-02-11T05:24:29.243Z,101406.23
2023-02-11T05:27:04.296Z,101411.00
2023-02-11T05:29:38.324Z,101405.29
2023-02-11T05:32:14.594Z,101401.31
2023-02-11T05:34:48.902Z,101401.61
2023-02-11T05:37:23.373Z,101399.59
2023-02-11T05:39:57.312Z,101405.41
2023-02-11T05:42:31.196Z,101408.20
2023-02-11T05:45:06.337Z,101403.30
2023-02-11T05:47:40.208Z,101406.35
2023-02-11T05:50:14.581Z,101397.95
2023-02-11T05:52:48.568Z,101394.32
2023-02-11T05:55:22.855Z,101389.16
2023-02-11T05:57:57.022Z,101387.00
2023-02-11T06:00:31.301Z,101384.95
2023-02-11T06:03:05.670Z,101379.59
2023-02-11T06:05:40.043Z,101381.35
2023-02-11T06:08:15.207Z,101377.75
2023-02-11T06:10:49.574Z,101368.00
2023-02-11T06:13:24.243Z,101376.13
2023-02-11T06:16:02.432Z,101372.31
2023-02-11T06:18:36.585Z,101372.05
2023-02-11T06:21:13.414Z,101365.27
2023-02-11T06:23:47.514Z,101368.08
2023-02-11T06:26:24.446Z,101361.63
2023-02-11T06:28:59.800Z,101363.75
2023-02-11T06:31:35.064Z,101365.53
2023-02-11T06:34:10.697Z,101366.70
2023-02-11T06:36:45.646Z,101362.61
2023-02-11T06:39:20.019Z,101363.25
2023-02-11T06:41:54.454Z,101361.33
2023-02-11T06:44:27.423Z,101364.68
2023-02-11T06:47:01.718Z,101367.49
2023-02-11T06:49:36.295Z,101363.52
2023-02-11T06:52:10.944Z,101363.44
2023-02-11T06:54:45.157Z,101356.84
2023-02-11T06:57:19.511Z,101349.50
2023-02-11T06:59:53.378Z,101356.55
2023-02-11T07:02:26.432Z,101359.02
2023-02-11T07:05:00.335Z,101360.05
2023-02-11T07:07:35.487Z,101359.80
2023-02-11T07:10:10.659Z,101354.05
2023-02-11T07:12:45.241Z,101353.73
2023-02-11T07:15:19.744Z,101358.53
2023-02-11T07:17:53.685Z,101354.59
2023-02-11T07:20:28.444Z,101358.16
2023-02-11T07:26:29.423Z,101356.88
2023-02-11T07:29:04.862Z,101355.14
2023-02-11T07:31:39.262Z,101357.23
2023-02-11T07:34:13.925Z,101355.70
2023-02-11T07:36:49.433Z,101352.51
2023-02-11T07:39:26.087Z,101351.53
2023-02-11T07:42:00.537Z,101342.87
2023-02-11T07:44:37.290Z,101344.64
2023-02-11T07:47:11.285Z,101339.97
2023-02-11T07:49:46.618Z,101339.48
2023-02-11T07:52:21.492Z,101337.92
2023-02-11T07:54:56.622Z,101341.67
2023-02-11T07:57:29.616Z,101342.29
2023-02-11T08:00:03.561Z,101330.33
2023-02-11T08:02:39.365Z,101330.23
2023-02-11T08:05:12.426Z,101328.99
2023-02-11T08:07:46.805Z,101327.08
2023-02-11T08:10:20.122Z,101322.38
2023-02-11T08:12:55.517Z,101318.77
2023-02-11T08:15:29.368Z,101319.55
2023-02-11T08:18:02.503Z,101313.22
2023-02-11T08:20:36.669Z,101311.63
2023-02-11T08:23:11.378Z,101310.17
2023-02-11T08:25:46.405Z,101309.66
2023-02-11T08:28:19.655Z,101304.80
2023-02-11T08:30:53.966Z,101302.25
2023-02-11T08:33:28.921Z,101300.65
2023-02-11T08:36:03.592Z,101306.34
2023-02-11T08:38:37.639Z,101292.69
2023-02-11T08:41:14.427Z,101284.45
2023-02-11T08:43:49.709Z,101289.80
2023-02-11T08:46:23.497Z,101287.80
2023-02-11T08:48:57.198Z,101280.87
2023-02-11T08:51:31.754Z,101277.96
2023-02-11T08:54:09.145Z,101266.98
2023-02-11T08:56:44.592Z,101266.83
2023-02-11T08:59:19.083Z,101266.28
2023-02-11T09:01:53.705Z,101265.73
2023-02-11T09:04:26.688Z,101258.60
2023-02-11T09:07:00.852Z,101255.88
2023-02-11T09:09:36.503Z,101253.48
2023-02-11T09:12:10.579Z,101254.95
2023-02-11T09:14:44.952Z,101249.27
2023-02-11T09:17:18.680Z,101237.89
2023-02-11T09:19:52.497Z,101234.03
2023-02-11T09:22:25.612Z,101227.05
2023-02-11T09:25:00.103Z,101228.33
2023-02-11T09:27:34.240Z,101219.48
2023-02-11T09:30:09.113Z,101216.73
2023-02-11T09:32:43.793Z,101214.86
2023-02-11T09:35:18.473Z,101220.52
2023-02-11T09:37:52.902Z,101212.05
2023-02-11T09:40:26.021Z,101206.13
2023-02-11T09:43:13.245Z,101200.94
2023-02-11T09:45:47.681Z,101202.52
2023-02-11T09:48:24.300Z,101204.50
2023-02-11T09:51:02.857Z,101197.64
2023-02-11T09:53:43.455Z,101192.81
2023-02-11T09:56:17.950Z,101191.11
2023-02-11T09:58:51.790Z,101194.16
2023-02-11T10:01:38.978Z,101193.56
2023-02-11T10:05:06.422Z,101190.27
2023-02-11T10:08:15.183Z,101186.41
2023-02-11T10:11:02.065Z,101187.35
2023-02-11T10:13:50.592Z,101184.09
2023-02-11T10:17:04.801Z,101179.12
2023-02-11T10:19:58.529Z,101174.16
2023-02-11T10:22:49.579Z,101172.66
2023-02-11T10:25:45.277Z,101170.42
2023-02-11T10:28:31.586Z,101161.04
2023-02-11T10:31:10.309Z,101153.81
2023-02-11T10:34:03.954Z,101155.25
2023-02-11T10:36:42.529Z,101149.51
2023-02-11T10:39:25.361Z,101145.39
2023-02-11T10:42:13.818Z,101136.69
2023-02-11T10:45:06.485Z,101135.55
2023-02-11T10:47:42.711Z,101132.72
2023-02-11T10:50:31.269Z,101133.94
2023-02-11T10:53:24.816Z,101119.74
2023-02-11T10:55:59.681Z,101116.00
2023-02-11T10:58:44.653Z,101112.64
2023-02-11T11:01:24.851Z,101110.34
2023-02-11T11:03:55.141Z,101105.34
2023-02-11T11:06:34.528Z,101107.13
2023-02-11T11:09:08.204Z,101092.20
2023-02-11T11:11:42.787Z,101091.06
2023-02-11T11:14:20.634Z,101094.48
2023-02-11T11:16:58.202Z,101089.33
2023-02-11T11:19:32.030Z,101087.48
2023-02-11T11:22:07.120Z,101080.87
2023-02-11T11:24:50.527Z,101080.42
2023-02-11T11:27:26.313Z,101089.19
2023-02-11T11:30:02.352Z,101078.48
2023-02-11T11:32:37.581Z,101080.77
2023-02-11T11:35:30.582Z,101073.14
2023-02-11T11:38:06.174Z,101074.02
2023-02-11T11:40:40.571Z,101069.35
2023-02-11T11:43:23.334Z,101068.00
2023-02-11T11:46:00.373Z,101057.44
2023-02-11T11:48:39.762Z,101050.55
2023-02-11T11:51:15.478Z,101055.98
2023-02-11T11:54:03.656Z,101042.88
2023-02-11T11:56:44.871Z,101039.75
2023-02-11T11:59:19.138Z,101043.27
2023-02-11T12:02:11.603Z,101048.03
2023-02-11T12:04:58.763Z,101039.23
2023-02-11T12:08:14.910Z,101051.34
2023-02-11T12:11:27.680Z,101046.73
2023-02-11T12:14:12.289Z,101036.59
2023-02-11T12:17:06.189Z,101032.57
2023-02-11T12:19:56.057Z,101029.13
2023-02-11T12:22:55.640Z,101025.75
2023-02-11T12:25:58.660Z,101022.02
2023-02-11T12:29:04.126Z,101024.66
2023-02-11T12:32:04.013Z,101014.78
2023-02-11T12:35:17.157Z,101023.80
2023-02-11T12:38:01.397Z,101021.28
2023-02-11T12:40:48.478Z,101011.56
2023-02-11T12:43:36.009Z,101012.69
2023-02-11T12:46:37.655Z,101011.79
2023-02-11T12:49:22.056Z,101016.39
2023-02-11T12:52:10.157Z,101008.83
2023-02-11T12:55:27.317Z,101005.70
2023-02-11T12:58:03.135Z,101002.45
2023-02-11T13:00:51.132Z,100999.02
2023-02-11T13:03:33.535Z,101004.38
2023-02-11T13:06:11.537Z,100998.11
2023-02-11T13:08:58.778Z,100990.94
2023-02-11T13:11:41.734Z,100992.57
2023-02-11T13:14:19.980Z,100990.00
2023-02-11T13:16:57.809Z,100992.73
2023-02-11T13:19:51.501Z,100979.34
2023-02-11T13:22:35.925Z,100979.34
2023-02-11T13:25:22.865Z,100987.97
2023-02-11T13:28:39.182Z,100976.61
2023-02-11T13:31:15.939Z,100979.92
2023-02-11T13:33:50.840Z,100981.80
2023-02-11T13:36:27.682Z,100985.49
2023-02-11T13:39:08.155Z,100982.24
2023-02-11T13:41:46.022Z,100982.44
2023-02-11T13:44:24.853Z,100976.96
2023-02-11T13:47:05.231Z,100979.37
2023-02-11T13:49:44.140Z,100982.56
2023-02-11T13:52:27.586Z,100971.55
2023-02-11T13:55:14.802Z,100964.45
2023-02-11T13:58:12.247Z,100963.19
2023-02-11T14:00:51.216Z,100963.96
2023-02-11T14:03:50.620Z,100966.40
2023-02-11T14:06:48.429Z,100960.93
2023-02-11T14:09:38.385Z,100953.27
2023-02-11T14:12:35.742Z,100954.23
2023-02-11T14:15:19.501Z,100948.25
2023-02-11T14:17:53.988Z,100941.33
2023-02-11T14:20:44.322Z,100940.67
2023-02-11T14:23:27.743Z,100943.66
2023-02-11T14:26:06.703Z,100940.25
2023-02-11T14:28:41.935Z,100930.20
2023-02-11T14:31:20.535Z,100929.33
2023-02-11T14:34:38.578Z,100926.65
2023-02-11T14:37:22.529Z,100925.64
2023-02-11T14:40:01.837Z,100925.17
2023-02-11T14:42:37.253Z,100920.69
2023-02-11T14:45:15.592Z,100922.59
2023-02-11T14:48:07.875Z,100921.38
2023-02-11T14:50:46.541Z,100921.27
2023-02-11T14:53:24.195Z,100916.02
2023-02-11T14:56:00.215Z,100919.53
2023-02-11T14:58:35.403Z,100916.98
2023-02-11T15:01:12.208Z,100910.44
2023-02-11T15:03:50.003Z,100912.30
2023-02-11T15:06:46.111Z,100915.69
2023-02-11T15:09:27.634Z,100909.48
2023-02-11T15:12:02.905Z,100905.34
2023-02-11T15:14:38.500Z,100907.41
2023-02-11T15:17:14.356Z,100901.55
2023-02-11T15:19:50.916Z,100899.77
2023-02-11T15:22:37.711Z,100894.67
2023-02-11T15:25:20.105Z,100899.86
2023-02-11T15:27:58.302Z,100898.97
2023-02-11T15:30:37.491Z,100883.77
2023-02-11T15:33:16.157Z,100891.52
2023-02-11T15:35:49.886Z,100888.23
2023-02-11T15:38:23.882Z,100890.29
2023-02-11T15:41:01.260Z,100893.42
2023-02-11T15:43:51.380Z,100892.00
2023-02-11T15:46:25.931Z,100890.77
2023-02-11T15:48:59.710Z,100895.94
2023-02-11T15:51:37.991Z,100896.11
2023-02-11T15:54:31.343Z,100897.61
2023-02-11T15:57:08.622Z,100899.11
2023-02-11T15:59:49.767Z,100897.27
2023-02-11T16:02:33.123Z,100897.48
2023-02-11T16:05:31.488Z,100901.67
2023-02-11T16:08:21.769Z,100902.61
2023-02-11T16:11:07.533Z,100902.44
2023-02-11T16:13:48.835Z,100901.16
2023-02-11T16:16:26.447Z,100894.19
2023-02-11T16:19:05.360Z,100893.63
2023-02-11T16:21:43.028Z,100895.47
2023-02-11T16:24:33.249Z,100888.67
2023-02-11T16:27:23.092Z,100893.08
2023-02-11T16:29:57.382Z,100890.85
2023-02-11T16:32:32.034Z,100885.89
2023-02-11T16:35:09.340Z,100881.31
2023-02-11T16:37:43.360Z,100877.08
2023-02-11T16:40:18.165Z,100882.77
2023-02-11T16:42:53.698Z,100872.50
2023-02-11T16:45:27.974Z,100872.85
2023-02-11T16:48:02.492Z,100867.72
2023-02-11T16:50:37.995Z,100867.55
2023-02-11T16:53:12.363Z,100869.94
2023-02-11T16:55:47.363Z,100865.16
2023-02-11T16:58:22.562Z,100859.33
2023-02-11T17:00:57.601Z,100857.53
2023-02-11T17:03:34.083Z,100859.55
2023-02-11T17:06:12.362Z,100853.52
2023-02-11T17:08:46.434Z,100849.12
2023-02-11T17:11:19.984Z,100845.31
2023-02-11T17:13:53.777Z,100846.25
2023-02-11T17:16:28.526Z,100846.64
2023-02-11T17:19:03.219Z,100843.00
2023-02-11T17:21:36.506Z,100856.04
2023-02-11T17:24:11.155Z,100853.82
2023-02-11T17:26:46.563Z,100846.89
2023-02-11T17:29:25.160Z,100843.59
2023-02-11T17:31:59.500Z,100849.67
2023-02-11T17:34:34.101Z,100842.02
2023-02-11T17:37:09.582Z,100843.85
2023-02-11T17:39:45.122Z,100837.09
2023-02-11T17:42:22.128Z,100839.49
2023-02-11T17:44:56.147Z,100837.30
2023-02-11T17:47:30.798Z,100828.89
2023-02-11T17:50:04.812Z,100819.02
2023-02-11T17:52:39.557Z,100826.70
2023-02-11T17:55:14.052Z,100818.84
2023-02-11T17:57:47.977Z,100814.44
2023-02-11T18:00:23.867Z,100805.12
2023-02-11T18:02:58.166Z,100801.10
2023-02-11T18:05:39.816Z,100802.05
2023-02-11T18:08:14.102Z,100789.40
2023-02-11T18:10:48.546Z,100789.05
2023-02-11T18:13:23.389Z,100780.42
2023-02-11T18:16:06.227Z,100776.36
2023-02-11T18:18:40.034Z,100780.21
2023-02-11T18:21:14.859Z,100775.30
2023-02-11T18:23:49.218Z,100772.90
2023-02-11T18:26:25.465Z,100771.45
2023-02-11T18:29:02.312Z,100769.78
2023-02-11T18:31:36.742Z,100763.75
2023-02-11T18:34:12.157Z,100760.64
2023-02-11T18:36:45.991Z,100756.23
2023-02-11T18:39:21.033Z,100749.48
2023-02-11T18:41:58.650Z,100745.81
2023-02-11T18:44:33.584Z,100747.69
2023-02-11T18:47:07.720Z,100746.79
2023-02-11T18:49:42.130Z,100744.75
2023-02-11T18:52:16.117Z,100741.80
2023-02-11T18:54:52.710Z,100730.44
2023-02-11T18:57:27.021Z,100727.88
2023-02-11T19:00:01.769Z,100727.88
2023-02-11T19:02:37.257Z,100726.59
2023-02-11T19:05:11.678Z,100718.72
2023-02-11T19:07:45.814Z,100714.48
2023-02-11T19:10:20.316Z,100717.22
2023-02-11T19:12:59.307Z,100708.80
2023-02-11T19:15:33.963Z,100709.16
2023-02-11T19:18:08.387Z,100709.91
2023-02-11T19:20:45.069Z,100700.77
2023-02-11T19:23:19.624Z,100698.21
2023-02-11T19:25:54.115Z,100697.87
2023-02-11T19:28:28.845Z,100698.27
2023-02-11T19:31:10.498Z,100695.53
2023-02-11T19:33:45.044Z,100696.46
2023-02-11T19:36:20.880Z,100695.53
2023-02-11T19:38:55.288Z,100693.34
2023-02-11T19:41:29.077Z,100695.36
2023-02-11T19:44:03.815Z,100683.30
2023-02-11T19:46:41.213Z,100691.52
2023-02-11T19:49:19.359Z,100686.55
2023-02-11T19:51:55.610Z,100673.01
2023-02-11T19:54:30.203Z,100674.29
2023-02-11T19:57:04.499Z,100670.06
2023-02-11T19:59:37.540Z,100674.08
2023-02-11T20:02:14.475Z,100666.39
2023-02-11T20:04:48.812Z,100661.64
2023-02-11T20:07:22.696Z,100667.32
2023-02-11T20:09:57.888Z,100660.92
2023-02-11T20:12:31.777Z,100662.25
2023-02-11T20:15:06.859Z,100654.22
2023-02-11T20:17:40.899Z,100650.77
2023-02-11T20:20:16.222Z,100647.87
2023-02-11T20:22:50.133Z,100642.57
2023-02-11T20:25:24.602Z,100643.51
2023-02-11T20:27:59.071Z,100641.63
2023-02-11T20:30:33.842Z,100642.91
2023-02-11T20:33:08.327Z,100637.22
2023-02-11T20:35:42.945Z,100635.21
2023-02-11T20:38:18.024Z,100633.34
2023-02-11T20:40:52.588Z,100621.97
2023-02-11T20:43:27.293Z,100617.95
2023-02-11T20:46:06.085Z,100620.52
2023-02-11T20:48:40.768Z,100613.77
2023-02-11T20:51:18.955Z,100613.77
2023-02-11T20:53:54.226Z,100609.37
2023-02-11T20:56:32.254Z,100607.91
2023-02-11T20:59:07.255Z,100601.89
2023-02-11T21:01:44.000Z,100602.80
2023-02-11T21:04:22.339Z,100603.52
2023-02-11T21:07:00.558Z,100606.47
2023-02-11T21:09:35.211Z,100597.11
2023-02-11T21:12:10.276Z,100603.69
2023-02-11T21:14:44.783Z,100601.84
2023-02-11T21:17:18.195Z,100593.77
2023-02-11T21:19:52.140Z,100591.88
2023-02-11T21:22:26.568Z,100589.48
2023-02-11T21:25:01.453Z,100589.27
2023-02-11T21:27:36.193Z,100590.20
2023-02-11T21:30:11.621Z,100578.66
2023-02-11T21:32:45.506Z,100578.88
2023-02-11T21:35:19.842Z,100573.20
2023-02-11T21:37:53.726Z,100567.17
2023-02-11T21:40:28.854Z,100563.68
2023-02-11T21:43:02.656Z,100556.38
2023-02-11T21:45:37.102Z,100551.80
2023-02-11T21:48:10.972Z,100552.15
2023-02-11T21:50:46.006Z,100546.34
2023-02-11T21:53:18.731Z,100546.19
2023-02-11T21:55:52.895Z,100542.94
2023-02-11T21:58:27.015Z,100534.70
2023-02-11T22:01:01.152Z,100531.24
2023-02-11T22:03:35.519Z,100530.48
2023-02-11T22:06:16.415Z,100532.09
2023-02-11T22:08:51.167Z,100525.67
2023-02-11T22:11:25.193Z,100515.03
2023-02-11T22:13:59.862Z,100512.47
2023-02-11T22:16:34.623Z,100511.41
2023-02-11T22:19:08.570Z,100509.19
2023-02-11T22:21:43.447Z,100510.47
2023-02-11T22:24:16.437Z,100511.57
2023-02-11T22:26:50.436Z,100507.72
2023-02-11T22:29:24.393Z,100504.61
2023-02-11T22:31:58.931Z,100509.52
2023-02-11T22:34:33.511Z,100493.19
2023-02-11T22:37:08.123Z,100487.49
2023-02-11T22:39:42.944Z,100494.41
2023-02-11T22:42:17.884Z,100495.34
2023-02-11T22:44:52.031Z,100487.27
2023-02-11T22:47:25.999Z,100477.19
2023-02-11T22:49:59.063Z,100477.92
2023-02-11T22:52:33.268Z,100475.17
2023-02-11T22:55:07.187Z,100475.17
2023-02-11T22:57:41.182Z,100480.97
2023-02-11T23:00:15.672Z,100473.66
2023-02-11T23:02:50.928Z,100472.55
2023-02-11T23:05:24.985Z,100466.69
2023-02-11T23:07:59.885Z,100460.79
2023-02-11T23:10:36.558Z,100458.77
2023-02-11T23:13:11.476Z,100455.25
2023-02-11T23:15:47.356Z,100441.31
2023-02-11T23:18:21.207Z,100445.48
2023-02-11T23:20:55.118Z,100433.72
2023-02-11T23:23:29.404Z,100431.16
2023-02-11T23:26:03.644Z,100424.75
2023-02-11T23:28:38.331Z,100423.47
2023-02-11T23:31:20.275Z,100417.44
2023-02-11T23:33:54.344Z,100420.39
2023-02-11T23:36:29.775Z,100411.41
2023-02-11T23:39:04.571Z,100405.52
2023-02-11T23:41:38.998Z,100406.41
2023-02-11T23:44:13.901Z,100399.48
2023-02-11T23:46:48.249Z,100395.32
2023-02-11T23:49:22.348Z,100395.16
2023-02-11T23:51:56.784Z,100387.09
2023-02-11T23:54:30.045Z,100384.01
2023-02-11T23:57:04.232Z,100386.19
2023-02-11T23:59:38.203Z,100391.47
